CYOW/YOW METAR and TAF weather

Enter ICAO airport designator
Station Type Date Time Source
CYOW METAR 2020/09/18 22:00 UTC NOAA

CYOW 182200Z 36013G19KT 15SM FEW045 FEW075 11/M04 A3023 RMK CU1AC2 CU TR SLP244


Station Type Date Time Source
CYOW Decoded METAR 2020/09/18 22:00 UTC NOAA

Ottawa Int'L. Ont., Canada (CYOW) 45-19N 075-40W 114M
Sep 18, 2020 - 06:00 PM EDT / 2020.09.18 2200 UTC
Wind: from the N (360 degrees) at 15 MPH (13 KT) gusting to 22 MPH (19 KT):0
Visibility: 15 mile(s):0
Sky conditions: mostly clear
Temperature: 51 F (11 C)
Dew Point: 24 F (-4 C)
Relative Humidity: 34%
Pressure (altimeter): 30.23 in. Hg (1023 hPa)
ob: CYOW 182200Z 36013G19KT 15SM FEW045 FEW075 11/M04 A3023 RMK CU1AC2 CU TR SLP244
cycle: 22

Station Type Date Time Source
CYOW TAF 2020/09/18 21:42 UTC NOAA

TAF CYOW 182039Z 1821/1918 34012KT P6SM SCT080
TEMPO 1821/1824 BKN080
FM190000 36012KT P6SM FEW080
BECMG 1900/1902 34007KT
FM191700 32007KT P6SM SCT060
RMK NXT FCST BY 190000Z

Example: see airport list